createdAt,value
2022-11-09T00:00:48.752Z,98929.31
2022-11-09T00:03:15.628Z,98926.88
2022-11-09T00:05:42.179Z,98919.06
2022-11-09T00:08:10.118Z,98923.81
2022-11-09T00:10:37.882Z,98922.00
2022-11-09T00:13:05.310Z,98920.34
2022-11-09T00:15:31.912Z,98919.84
2022-11-09T00:18:01.142Z,98920.13
2022-11-09T00:20:27.839Z,98920.25
2022-11-09T00:22:54.384Z,98924.06
2022-11-09T00:25:20.907Z,98928.72
2022-11-09T00:27:47.451Z,98922.63
2022-11-09T00:30:14.155Z,98929.88
2022-11-09T00:32:40.926Z,98930.75
2022-11-09T00:35:07.778Z,98918.22
2022-11-09T00:37:34.395Z,98926.44
2022-11-09T00:40:01.014Z,98929.16
2022-11-09T00:42:27.606Z,98933.97
2022-11-09T00:44:54.129Z,98925.22
2022-11-09T00:47:20.717Z,98928.06
2022-11-09T00:49:47.286Z,98938.00
2022-11-09T00:52:13.902Z,98939.97
2022-11-09T00:54:40.445Z,98937.50
2022-11-09T00:57:06.938Z,98943.09
2022-11-09T00:59:33.532Z,98940.66
2022-11-09T01:02:00.000Z,98938.91
2022-11-09T01:04:26.527Z,98942.59
2022-11-09T01:06:53.085Z,98943.47
2022-11-09T01:09:19.650Z,98939.00
2022-11-09T01:11:46.187Z,98933.84
2022-11-09T01:14:12.852Z,98935.59
2022-11-09T01:16:39.484Z,98933.84
2022-11-09T01:19:06.194Z,98932.09
2022-11-09T01:21:32.801Z,98936.69
2022-11-09T01:23:59.774Z,98933.28
2022-11-09T01:26:26.198Z,98926.19
2022-11-09T01:28:52.891Z,98931.63
2022-11-09T01:31:21.285Z,98939.59
2022-11-09T01:33:48.236Z,98934.31
2022-11-09T01:36:21.277Z,98928.94
2022-11-09T01:38:48.648Z,98930.81
2022-11-09T01:41:21.810Z,98924.56
2022-11-09T01:44:08.761Z,98933.00
2022-11-09T01:46:56.307Z,98934.09
2022-11-09T01:49:41.277Z,98927.84
2022-11-09T01:52:22.850Z,98931.25
2022-11-09T01:54:53.742Z,98920.69
2022-11-09T01:57:25.928Z,98928.75
2022-11-09T01:59:58.228Z,98921.84
2022-11-09T02:02:24.786Z,98929.16
2022-11-09T02:04:56.832Z,98923.75
2022-11-09T02:07:24.569Z,98927.66
2022-11-09T02:10:14.044Z,98927.78
2022-11-09T02:12:41.124Z,98931.56
2022-11-09T02:15:09.473Z,98921.72
2022-11-09T02:17:36.644Z,98919.03
2022-11-09T02:20:09.109Z,98923.31
2022-11-09T02:22:36.251Z,98919.91
2022-11-09T02:25:03.994Z,98918.97
2022-11-09T02:27:30.572Z,98922.16
2022-11-09T02:29:58.715Z,98911.50
2022-11-09T02:32:28.688Z,98908.63
2022-11-09T02:34:55.423Z,98905.22
2022-11-09T02:37:43.276Z,98913.91
2022-11-09T02:40:16.727Z,98902.44
2022-11-09T02:42:43.636Z,98902.38
2022-11-09T02:45:10.700Z,98905.84
2022-11-09T02:47:37.518Z,98896.28
2022-11-09T02:50:04.417Z,98897.19
2022-11-09T02:52:30.932Z,98897.31
2022-11-09T02:54:57.599Z,98897.25
2022-11-09T02:57:24.249Z,98893.69
2022-11-09T02:59:50.775Z,98887.78
2022-11-09T03:02:17.306Z,98896.81
2022-11-09T03:04:43.780Z,98894.28
2022-11-09T03:07:10.291Z,98887.34
2022-11-09T03:09:36.954Z,98892.69
2022-11-09T03:12:26.455Z,98890.22
2022-11-09T03:14:52.943Z,98887.63
2022-11-09T03:17:19.488Z,98892.19
2022-11-09T03:19:46.036Z,98896.59
2022-11-09T03:22:12.530Z,98901.88
2022-11-09T03:24:39.021Z,98909.06
2022-11-09T03:27:05.535Z,98909.06
2022-11-09T03:29:31.993Z,98903.69
2022-11-09T03:31:58.501Z,98910.06
2022-11-09T03:34:25.044Z,98909.34
2022-11-09T03:36:51.524Z,98911.16
2022-11-09T03:39:18.034Z,98901.59
2022-11-09T03:41:44.535Z,98912.44
2022-11-09T03:44:11.050Z,98905.38
2022-11-09T03:46:39.577Z,98903.72
2022-11-09T03:49:06.026Z,98899.38
2022-11-09T03:51:32.520Z,98896.25
2022-11-09T03:53:58.977Z,98898.88
2022-11-09T03:56:25.550Z,98896.31
2022-11-09T03:58:52.092Z,98902.53
2022-11-09T04:01:18.626Z,98899.16
2022-11-09T04:03:45.092Z,98899.16
2022-11-09T04:06:11.579Z,98908.03
2022-11-09T04:08:38.066Z,98900.81
2022-11-09T04:11:04.519Z,98904.28
2022-11-09T04:13:30.976Z,98892.63
2022-11-09T04:15:57.397Z,98893.38
2022-11-09T04:18:26.898Z,98900.53
2022-11-09T04:20:53.394Z,98896.25
2022-11-09T04:23:20.122Z,98906.19
2022-11-09T04:25:46.745Z,98896.31
2022-11-09T04:28:13.294Z,98900.88
2022-11-09T04:30:39.995Z,98902.81
2022-11-09T04:33:06.783Z,98886.75
2022-11-09T04:35:34.022Z,98890.53
2022-11-09T04:38:03.299Z,98894.28
2022-11-09T04:40:32.106Z,98897.03
2022-11-09T04:43:03.651Z,98894.38
2022-11-09T04:45:30.572Z,98896.16
2022-11-09T04:48:07.256Z,98900.75
2022-11-09T04:50:34.406Z,98900.69
2022-11-09T04:53:07.888Z,98902.44
2022-11-09T04:55:35.983Z,98898.75
2022-11-09T04:58:02.596Z,98900.50
2022-11-09T05:00:29.228Z,98898.53
2022-11-09T05:02:55.699Z,98895.06
2022-11-09T05:05:22.156Z,98902.16
2022-11-09T05:07:48.630Z,98904.72
2022-11-09T05:10:15.492Z,98898.44
2022-11-09T05:12:45.833Z,98900.00
2022-11-09T05:15:12.808Z,98910.56
2022-11-09T05:17:39.341Z,98909.63
2022-11-09T05:20:06.261Z,98909.44
2022-11-09T05:22:51.223Z,98915.59
2022-11-09T05:25:17.693Z,98925.22
2022-11-09T05:27:44.152Z,98930.56
2022-11-09T05:30:11.327Z,98934.09
2022-11-09T05:32:40.527Z,98930.38
2022-11-09T05:35:07.569Z,98931.25
2022-11-09T05:37:34.075Z,98943.78
2022-11-09T05:40:00.883Z,98949.13
2022-11-09T05:42:27.337Z,98947.19
2022-11-09T05:44:53.794Z,98948.97
2022-11-09T05:47:20.267Z,98950.50
2022-11-09T05:49:46.975Z,98944.22
2022-11-09T05:52:13.561Z,98958.66
2022-11-09T05:54:40.059Z,98951.53
2022-11-09T05:57:06.499Z,98944.44
2022-11-09T05:59:35.413Z,98943.56
2022-11-09T06:02:01.911Z,98949.84
2022-11-09T06:04:28.453Z,98946.25
2022-11-09T06:06:55.094Z,98958.75
2022-11-09T06:09:27.468Z,98954.41
2022-11-09T06:11:53.880Z,98951.81
2022-11-09T06:14:20.291Z,98954.56
2022-11-09T06:16:46.818Z,98957.22
2022-11-09T06:19:13.306Z,98946.53
2022-11-09T06:21:39.815Z,98939.41
2022-11-09T06:24:06.625Z,98954.66
2022-11-09T06:26:33.026Z,98945.03
2022-11-09T06:29:02.526Z,98954.81
2022-11-09T06:31:29.095Z,98955.78
2022-11-09T06:33:56.095Z,98965.63
2022-11-09T06:36:22.598Z,98963.81
2022-11-09T06:38:52.437Z,98964.63
2022-11-09T06:41:19.342Z,98962.69
2022-11-09T06:43:46.035Z,98959.00
2022-11-09T06:46:12.952Z,98967.03
2022-11-09T06:48:39.489Z,98959.00
2022-11-09T06:51:06.930Z,98958.13
2022-11-09T06:53:35.163Z,98955.47
2022-11-09T06:56:03.009Z,98962.75
2022-11-09T06:58:32.450Z,98960.94
2022-11-09T07:00:59.557Z,98965.25
2022-11-09T07:03:26.572Z,98975.75
2022-11-09T07:05:53.295Z,98972.78
2022-11-09T07:08:20.229Z,98978.03
2022-11-09T07:10:46.883Z,98976.81
2022-11-09T07:13:13.553Z,98985.63
2022-11-09T07:15:40.650Z,98986.34
2022-11-09T07:18:08.375Z,98994.25
2022-11-09T07:20:35.113Z,98989.75
2022-11-09T07:23:01.604Z,98981.34
2022-11-09T07:25:32.102Z,98988.53
2022-11-09T07:28:04.163Z,98990.03
2022-11-09T07:30:30.801Z,98997.16
2022-11-09T07:33:09.332Z,99006.94
2022-11-09T07:35:36.606Z,99012.00
2022-11-09T07:38:03.898Z,99009.19
2022-11-09T07:40:30.837Z,99019.91
2022-11-09T07:43:01.351Z,99008.19
2022-11-09T07:45:36.497Z,99008.03
2022-11-09T07:48:10.900Z,99016.50
2022-11-09T07:50:38.955Z,99019.06
2022-11-09T07:53:07.182Z,99016.28
2022-11-09T07:55:36.798Z,99011.66
2022-11-09T07:58:06.237Z,99014.16
2022-11-09T08:00:36.056Z,99016.47
2022-11-09T08:03:02.591Z,99016.47
2022-11-09T08:05:30.109Z,99017.28
2022-11-09T08:07:58.729Z,99018.00
2022-11-09T08:10:32.207Z,99014.09
2022-11-09T08:13:08.507Z,99017.88
2022-11-09T08:15:36.322Z,99033.88
2022-11-09T08:18:07.058Z,99022.25
2022-11-09T08:20:34.714Z,99014.31
2022-11-09T08:23:05.161Z,99019.66
2022-11-09T08:25:35.317Z,99014.47
2022-11-09T08:28:03.454Z,99021.53
2022-11-09T08:30:30.599Z,99013.59
2022-11-09T08:32:59.411Z,99012.94
2022-11-09T08:35:26.803Z,99015.53
2022-11-09T08:37:54.559Z,99024.47
2022-11-09T08:40:24.716Z,99017.44
2022-11-09T08:42:52.318Z,99018.94
2022-11-09T08:45:19.086Z,99016.25
2022-11-09T08:47:46.008Z,99022.50
2022-11-09T08:50:15.711Z,99025.75
2022-11-09T08:52:42.319Z,99032.06
2022-11-09T08:55:09.200Z,99033.97
2022-11-09T08:57:35.691Z,99036.47
2022-11-09T09:00:02.357Z,99031.91
2022-11-09T09:04:56.641Z,99028.31
2022-11-09T09:07:23.251Z,99018.34
2022-11-09T09:09:49.986Z,99028.13
2022-11-09T09:12:16.542Z,99020.31
2022-11-09T09:14:43.328Z,99016.06
2022-11-09T09:17:10.568Z,99023.25
2022-11-09T09:19:37.302Z,99021.41
2022-11-09T09:22:03.819Z,99028.59
2022-11-09T09:24:30.427Z,99026.78
2022-11-09T09:26:57.117Z,99027.59
2022-11-09T09:29:23.739Z,99033.00
2022-11-09T09:31:50.334Z,99026.06
2022-11-09T09:34:17.104Z,99032.44
2022-11-09T09:36:47.928Z,99036.94
2022-11-09T09:39:15.541Z,99033.28
2022-11-09T09:41:51.241Z,99042.34
2022-11-09T09:44:36.651Z,99030.84
2022-11-09T09:47:12.755Z,99035.50
2022-11-09T09:49:49.180Z,99035.50
2022-11-09T09:52:29.491Z,99039.97
2022-11-09T09:55:07.139Z,99029.31
2022-11-09T09:57:40.545Z,99023.81
2022-11-09T10:00:15.758Z,99028.31
2022-11-09T10:02:43.331Z,99035.31
2022-11-09T10:05:16.006Z,99036.22
2022-11-09T10:08:01.060Z,99022.84
2022-11-09T10:10:49.421Z,99024.91
2022-11-09T10:13:27.821Z,99016.84
2022-11-09T10:16:22.257Z,99005.13
2022-11-09T10:19:07.648Z,99009.41
2022-11-09T10:21:40.381Z,99002.00
2022-11-09T10:24:25.276Z,99003.59
2022-11-09T10:26:55.734Z,98998.00
2022-11-09T10:29:46.387Z,98979.25
2022-11-09T10:32:15.882Z,98990.69
2022-11-09T10:34:48.205Z,98979.88
2022-11-09T10:37:23.351Z,98993.19
2022-11-09T10:39:56.688Z,98987.84
2022-11-09T10:42:23.288Z,98980.72
2022-11-09T10:44:49.915Z,98982.63
2022-11-09T10:47:18.401Z,98970.16
2022-11-09T10:49:45.136Z,98973.78
2022-11-09T10:52:47.531Z,98974.72
2022-11-09T10:55:22.643Z,98969.38
2022-11-09T10:58:15.694Z,98969.31
2022-11-09T11:01:02.988Z,98965.81
2022-11-09T11:03:32.779Z,98970.38
2022-11-09T11:06:19.591Z,98964.16
2022-11-09T11:08:49.807Z,98964.94
2022-11-09T11:11:35.810Z,98961.28
2022-11-09T11:14:23.121Z,98953.91
2022-11-09T11:16:52.943Z,98961.81
2022-11-09T11:19:36.397Z,98960.16
2022-11-09T11:22:11.699Z,98968.28
2022-11-09T11:24:45.396Z,98970.97
2022-11-09T11:27:23.575Z,98970.72
2022-11-09T11:29:58.951Z,98976.88
2022-11-09T11:32:26.284Z,98974.06
2022-11-09T11:35:01.318Z,98962.94
2022-11-09T11:37:37.936Z,98958.94
2022-11-09T11:40:20.399Z,98964.53
2022-11-09T11:43:31.392Z,98960.28
2022-11-09T11:46:38.289Z,98965.53
2022-11-09T11:49:27.851Z,98961.25
2022-11-09T11:52:12.464Z,98954.66
2022-11-09T11:54:45.250Z,98950.00
2022-11-09T11:57:28.231Z,98946.97
2022-11-09T12:00:06.307Z,98949.31
2022-11-09T12:03:08.343Z,98941.78
2022-11-09T12:05:58.379Z,98936.41
2022-11-09T12:08:28.903Z,98933.34
2022-11-09T12:11:20.843Z,98932.56
2022-11-09T12:14:05.976Z,98937.00
2022-11-09T12:17:05.672Z,98948.09
2022-11-09T12:19:59.407Z,98949.06
2022-11-09T12:22:34.188Z,98948.09
2022-11-09T12:25:29.492Z,98940.44
2022-11-09T12:28:03.340Z,98937.16
2022-11-09T12:31:00.274Z,98938.81
2022-11-09T12:34:11.419Z,98938.81
2022-11-09T12:36:50.673Z,98928.59
2022-11-09T12:39:38.050Z,98932.38
2022-11-09T12:42:10.786Z,98933.34
2022-11-09T12:44:48.396Z,98934.56
2022-11-09T12:47:20.750Z,98928.75
2022-11-09T12:49:47.597Z,98938.63
2022-11-09T12:52:19.531Z,98940.72
2022-11-09T12:54:50.050Z,98952.50
2022-11-09T12:57:23.000Z,98951.09
2022-11-09T12:59:53.432Z,98955.31
2022-11-09T13:02:53.171Z,98959.28
2022-11-09T13:05:33.137Z,98961.63
2022-11-09T13:08:01.467Z,98963.59
2022-11-09T13:10:32.449Z,98962.25
2022-11-09T13:13:21.058Z,98946.66
2022-11-09T13:16:11.337Z,98949.97
2022-11-09T13:18:42.883Z,98938.97
2022-11-09T13:21:21.087Z,98938.88
2022-11-09T13:24:10.593Z,98946.69
2022-11-09T13:26:38.410Z,98940.38
2022-11-09T13:29:40.482Z,98939.56
2022-11-09T13:32:12.993Z,98927.34
2022-11-09T13:34:55.438Z,98933.75
2022-11-09T13:37:40.711Z,98952.66
2022-11-09T13:40:32.542Z,98949.81
2022-11-09T13:43:04.329Z,98940.63
2022-11-09T13:45:47.853Z,98947.47
2022-11-09T13:48:25.732Z,98936.47
2022-11-09T13:50:57.682Z,98944.38
2022-11-09T13:53:36.205Z,98946.16
2022-11-09T13:56:28.220Z,98955.38
2022-11-09T13:58:59.593Z,98957.09
2022-11-09T14:01:48.176Z,98966.13
2022-11-09T14:04:31.919Z,98954.41
2022-11-09T14:07:07.334Z,98961.88
2022-11-09T14:10:03.140Z,98964.91
2022-11-09T14:12:54.475Z,98964.91
2022-11-09T14:15:39.976Z,98974.34
2022-11-09T14:18:35.855Z,98973.69
2022-11-09T14:21:26.603Z,98973.97
2022-11-09T14:23:54.181Z,98969.78
2022-11-09T14:26:23.727Z,98966.38
2022-11-09T14:28:50.541Z,98967.66
2022-11-09T14:31:24.523Z,98985.22
2022-11-09T14:34:05.995Z,98980.16
2022-11-09T14:36:35.213Z,98966.25
2022-11-09T14:39:16.613Z,98974.63
2022-11-09T14:41:44.843Z,98979.59
2022-11-09T14:44:30.610Z,98981.59
2022-11-09T14:46:57.320Z,98980.88
2022-11-09T14:49:27.007Z,98984.75
2022-11-09T14:51:53.762Z,98985.38
2022-11-09T14:54:25.716Z,98994.84
2022-11-09T14:56:54.301Z,98991.56
2022-11-09T14:59:36.109Z,99002.47
2022-11-09T15:02:06.973Z,99000.09
2022-11-09T15:04:58.285Z,99003.28
2022-11-09T15:07:28.406Z,99007.72
2022-11-09T15:09:58.334Z,99016.25
2022-11-09T15:12:25.816Z,99009.03
2022-11-09T15:14:58.360Z,99014.81
2022-11-09T15:17:30.159Z,99008.97
2022-11-09T15:19:59.490Z,99011.75
2022-11-09T15:22:52.589Z,99011.22
2022-11-09T15:25:19.061Z,99011.78
2022-11-09T15:27:57.900Z,99021.78
2022-11-09T15:30:43.236Z,99022.00
2022-11-09T15:33:24.439Z,99013.22
2022-11-09T15:35:56.856Z,99027.91
2022-11-09T15:38:35.624Z,99034.16
2022-11-09T15:41:04.081Z,99036.94
2022-11-09T15:43:33.587Z,99041.66
2022-11-09T15:46:00.987Z,99044.34
2022-11-09T15:48:29.825Z,99051.72
2022-11-09T15:50:56.474Z,99046.56
2022-11-09T15:53:23.502Z,99058.19
2022-11-09T15:55:50.645Z,99055.66
2022-11-09T15:58:19.407Z,99049.56
2022-11-09T16:00:48.782Z,99055.88
2022-11-09T16:03:17.453Z,99059.41
2022-11-09T16:05:47.248Z,99069.13
2022-11-09T16:08:14.059Z,99068.03
2022-11-09T16:10:42.073Z,99071.66
2022-11-09T16:13:10.309Z,99074.25
2022-11-09T16:15:39.994Z,99068.63
2022-11-09T16:18:06.561Z,99068.56
2022-11-09T16:20:33.079Z,99064.09
2022-11-09T16:23:01.265Z,99071.97
2022-11-09T16:25:27.745Z,99076.47
2022-11-09T16:27:54.276Z,99080.97
2022-11-09T16:30:21.621Z,99068.34
2022-11-09T16:32:48.186Z,99070.91
2022-11-09T16:35:26.568Z,99079.81
2022-11-09T16:37:55.308Z,99071.78
2022-11-09T16:40:22.369Z,99082.56
2022-11-09T16:42:50.717Z,99080.91
2022-11-09T16:45:17.413Z,99085.38
2022-11-09T16:47:50.926Z,99094.28
2022-11-09T16:50:17.460Z,99093.28
2022-11-09T16:52:44.826Z,99078.13
2022-11-09T16:55:11.658Z,99085.31
2022-11-09T16:57:38.243Z,99081.66
2022-11-09T17:00:06.923Z,99080.91
2022-11-09T17:02:33.873Z,99088.72
2022-11-09T17:05:04.012Z,99081.75
2022-11-09T17:07:31.850Z,99075.34
2022-11-09T17:09:58.412Z,99080.91
2022-11-09T17:12:24.900Z,99079.06
2022-11-09T17:14:55.125Z,99086.91
2022-11-09T17:17:22.993Z,99089.59
2022-11-09T17:19:49.729Z,99085.03
2022-11-09T17:22:16.610Z,99086.91
2022-11-09T17:24:43.506Z,99083.41
2022-11-09T17:27:11.551Z,99079.72
2022-11-09T17:29:39.072Z,99082.38
2022-11-09T17:32:08.065Z,99078.72
2022-11-09T17:34:35.694Z,99092.06
2022-11-09T17:37:04.741Z,99091.13
2022-11-09T17:39:32.067Z,99094.66
2022-11-09T17:42:01.621Z,99108.00
2022-11-09T17:44:28.161Z,99107.72
2022-11-09T17:46:54.726Z,99108.53
2022-11-09T17:49:22.849Z,99112.06
2022-11-09T17:51:49.288Z,99104.84
2022-11-09T17:54:15.895Z,99103.16
2022-11-09T17:56:45.604Z,99109.19
2022-11-09T17:59:13.233Z,99104.75
2022-11-09T18:01:41.787Z,99099.41
2022-11-09T18:04:10.363Z,99108.44
2022-11-09T18:06:37.940Z,99115.47
2022-11-09T18:09:39.559Z,99113.88
2022-11-09T18:11:51.592Z,99115.47
2022-11-09T18:14:18.229Z,99113.59
2022-11-09T18:16:45.419Z,99124.13
2022-11-09T18:19:12.465Z,99114.41
2022-11-09T18:21:38.902Z,99118.69
2022-11-09T18:24:05.765Z,99117.97
2022-11-09T18:26:32.894Z,99127.53
2022-11-09T18:28:59.430Z,99117.75
2022-11-09T18:31:26.101Z,99116.81
2022-11-09T18:33:53.303Z,99129.94
2022-11-09T18:36:21.562Z,99121.00
2022-11-09T18:38:51.243Z,99113.06
2022-11-09T18:41:21.772Z,99126.28
2022-11-09T18:43:49.779Z,99114.53
2022-11-09T18:46:18.063Z,99112.63
2022-11-09T18:48:45.193Z,99119.72
2022-11-09T18:51:12.549Z,99128.50
2022-11-09T18:53:44.252Z,99126.34
2022-11-09T18:56:18.583Z,99124.44
2022-11-09T18:58:46.139Z,99126.09
2022-11-09T19:01:12.904Z,99125.31
2022-11-09T19:03:39.589Z,99130.78
2022-11-09T19:06:14.054Z,99133.38
2022-11-09T19:08:59.151Z,99131.53
2022-11-09T19:11:26.026Z,99132.34
2022-11-09T19:13:52.552Z,99132.34
2022-11-09T19:16:20.322Z,99137.63
2022-11-09T19:18:46.925Z,99138.53
2022-11-09T19:21:34.126Z,99141.84
2022-11-09T19:24:00.676Z,99140.97
2022-11-09T19:26:27.360Z,99148.00
2022-11-09T19:28:54.236Z,99159.75
2022-11-09T19:31:23.012Z,99155.19
2022-11-09T19:33:49.769Z,99161.28
2022-11-09T19:36:33.039Z,99158.41
2022-11-09T19:39:00.074Z,99168.16
2022-11-09T19:41:26.541Z,99164.25
2022-11-09T19:43:55.874Z,99165.78
2022-11-09T19:46:22.996Z,99170.13
2022-11-09T19:48:49.363Z,99176.50
2022-11-09T19:51:17.764Z,99162.50
2022-11-09T19:53:56.421Z,99170.78
2022-11-09T19:56:25.832Z,99173.50
2022-11-09T19:58:55.239Z,99164.53
2022-11-09T20:01:22.502Z,99165.47
2022-11-09T20:03:50.569Z,99162.00
2022-11-09T20:06:18.405Z,99172.59
2022-11-09T20:08:45.643Z,99183.31
2022-11-09T20:11:36.776Z,99180.78
2022-11-09T20:14:04.728Z,99179.03
2022-11-09T20:16:32.695Z,99177.16
2022-11-09T20:19:00.471Z,99169.13
2022-11-09T20:21:26.988Z,99171.72
2022-11-09T20:23:53.839Z,99168.03
2022-11-09T20:26:20.679Z,99173.38
2022-11-09T20:28:48.055Z,99179.63
2022-11-09T20:31:22.948Z,99179.19
2022-11-09T20:33:50.139Z,99181.97
2022-11-09T20:36:18.803Z,99183.75
2022-11-09T20:38:46.910Z,99182.97
2022-11-09T20:41:13.665Z,99190.06
2022-11-09T20:43:40.481Z,99190.06
2022-11-09T20:46:09.740Z,99190.88
2022-11-09T20:48:53.569Z,99190.88
2022-11-09T20:51:23.142Z,99200.56
2022-11-09T20:53:50.790Z,99195.22
2022-11-09T20:56:18.469Z,99195.13
2022-11-09T20:58:45.058Z,99196.97
2022-11-09T21:01:15.579Z,99191.59
2022-11-09T21:03:42.992Z,99196.88
2022-11-09T21:06:11.310Z,99195.88
2022-11-09T21:08:38.294Z,99201.97
2022-11-09T21:11:05.803Z,99202.84
2022-11-09T21:13:33.012Z,99205.38
2022-11-09T21:16:10.572Z,99206.25
2022-11-09T21:18:37.121Z,99214.34
2022-11-09T21:21:15.836Z,99213.56
2022-11-09T21:24:01.611Z,99228.66
2022-11-09T21:26:47.435Z,99225.09
2022-11-09T21:29:40.909Z,99217.75
2022-11-09T21:32:08.504Z,99218.78
2022-11-09T21:34:37.161Z,99219.59
2022-11-09T21:37:04.907Z,99217.56
2022-11-09T21:39:32.131Z,99211.47
2022-11-09T21:41:58.798Z,99214.16
2022-11-09T21:44:27.454Z,99214.31
2022-11-09T21:46:54.069Z,99218.69
2022-11-09T21:49:20.744Z,99212.91
2022-11-09T21:51:47.482Z,99219.00
2022-11-09T21:54:14.074Z,99216.47
2022-11-09T21:56:40.641Z,99223.56
2022-11-09T21:59:07.775Z,99222.63
2022-11-09T22:01:34.808Z,99231.13
2022-11-09T22:04:02.076Z,99229.22
2022-11-09T22:06:28.838Z,99240.97
2022-11-09T22:08:55.515Z,99230.97
2022-11-09T22:11:43.121Z,99240.03
2022-11-09T22:14:33.447Z,99238.06
2022-11-09T22:17:00.347Z,99246.00
2022-11-09T22:19:46.013Z,99253.03
2022-11-09T22:22:13.380Z,99248.44
2022-11-09T22:24:40.672Z,99255.56
2022-11-09T22:27:08.001Z,99264.41
2022-11-09T22:29:34.613Z,99256.28
2022-11-09T22:32:01.220Z,99255.47
2022-11-09T22:34:27.915Z,99249.34
2022-11-09T22:36:54.446Z,99255.75
2022-11-09T22:39:21.161Z,99246.94
2022-11-09T22:41:47.705Z,99252.44
2022-11-09T22:44:14.356Z,99254.88
2022-11-09T22:46:40.968Z,99269.97
2022-11-09T22:49:08.588Z,99272.44
2022-11-09T22:51:35.294Z,99282.06
2022-11-09T22:54:02.415Z,99275.88
2022-11-09T22:56:28.971Z,99282.28
2022-11-09T22:58:55.518Z,99277.94
2022-11-09T23:01:22.080Z,99272.34
2022-11-09T23:03:48.651Z,99269.03
2022-11-09T23:06:21.636Z,99271.41
2022-11-09T23:08:48.929Z,99269.06
2022-11-09T23:11:21.070Z,99271.75
2022-11-09T23:13:55.113Z,99276.19
2022-11-09T23:16:23.483Z,99282.84
2022-11-09T23:18:56.477Z,99276.91
2022-11-09T23:21:29.038Z,99282.84
2022-11-09T23:23:58.355Z,99293.31
2022-11-09T23:26:26.543Z,99288.06
2022-11-09T23:28:54.099Z,99291.19
2022-11-09T23:31:24.720Z,99291.06
2022-11-09T23:33:58.161Z,99296.13
2022-11-09T23:36:26.276Z,99303.59
2022-11-09T23:38:53.489Z,99311.44
2022-11-09T23:41:20.348Z,99311.25
2022-11-09T23:43:49.627Z,99315.94
2022-11-09T23:46:17.560Z,99317.94
2022-11-09T23:48:44.170Z,99317.94
2022-11-09T23:51:11.046Z,99333.19
2022-11-09T23:53:37.948Z,99329.13
2022-11-09T23:56:06.881Z,99327.13
2022-11-09T23:58:33.638Z,99330.50
